sensor_id;sensor_type;location;lat;lon;timestamp;P1;durP1;ratioP1;P2;durP2;ratioP2
17890;SDS011;9071;48.220;14.480;2023-07-09T00:03:24;8.15;;;6.50;;
17890;SDS011;9071;48.220;14.480;2023-07-09T00:08:27;8.75;;;7.13;;
17890;SDS011;9071;48.220;14.480;2023-07-09T00:13:33;7.50;;;6.43;;
17890;SDS011;9071;48.220;14.480;2023-07-09T00:18:35;7.78;;;6.35;;
17890;SDS011;9071;48.220;14.480;2023-07-09T00:23:37;8.70;;;6.93;;
17890;SDS011;9071;48.220;14.480;2023-07-09T00:28:41;8.73;;;6.03;;
17890;SDS011;9071;48.220;14.480;2023-07-09T00:33:44;9.60;;;6.55;;
17890;SDS011;9071;48.220;14.480;2023-07-09T00:38:46;7.75;;;6.15;;
17890;SDS011;9071;48.220;14.480;2023-07-09T00:43:50;7.85;;;6.47;;
17890;SDS011;9071;48.220;14.480;2023-07-09T00:48:53;10.02;;;6.70;;
17890;SDS011;9071;48.220;14.480;2023-07-09T00:53:59;11.15;;;8.20;;
17890;SDS011;9071;48.220;14.480;2023-07-09T00:59:09;9.98;;;7.53;;
17890;SDS011;9071;48.220;14.480;2023-07-09T01:04:17;11.27;;;8.23;;
17890;SDS011;9071;48.220;14.480;2023-07-09T01:09:23;8.93;;;7.15;;
17890;SDS011;9071;48.220;14.480;2023-07-09T01:14:28;9.65;;;7.63;;
17890;SDS011;9071;48.220;14.480;2023-07-09T01:19:36;12.50;;;7.50;;
17890;SDS011;9071;48.220;14.480;2023-07-09T01:24:52;10.88;;;8.60;;
17890;SDS011;9071;48.220;14.480;2023-07-09T01:29:57;10.55;;;7.65;;
17890;SDS011;9071;48.220;14.480;2023-07-09T01:35:01;13.73;;;9.55;;
17890;SDS011;9071;48.220;14.480;2023-07-09T01:40:08;10.15;;;8.48;;
17890;SDS011;9071;48.220;14.480;2023-07-09T01:45:12;10.40;;;7.97;;
17890;SDS011;9071;48.220;14.480;2023-07-09T01:50:15;11.27;;;7.60;;
17890;SDS011;9071;48.220;14.480;2023-07-09T01:55:20;10.00;;;7.68;;
17890;SDS011;9071;48.220;14.480;2023-07-09T02:00:22;8.68;;;7.78;;
17890;SDS011;9071;48.220;14.480;2023-07-09T02:05:24;8.38;;;7.53;;
17890;SDS011;9071;48.220;14.480;2023-07-09T02:10:28;11.23;;;8.20;;
17890;SDS011;9071;48.220;14.480;2023-07-09T02:15:31;9.80;;;7.95;;
17890;SDS011;9071;48.220;14.480;2023-07-09T02:20:33;8.07;;;7.22;;
17890;SDS011;9071;48.220;14.480;2023-07-09T02:25:36;12.77;;;8.32;;
17890;SDS011;9071;48.220;14.480;2023-07-09T02:30:38;11.52;;;8.10;;
17890;SDS011;9071;48.220;14.480;2023-07-09T02:35:40;10.27;;;8.50;;
17890;SDS011;9071;48.220;14.480;2023-07-09T02:40:44;11.10;;;7.95;;
17890;SDS011;9071;48.220;14.480;2023-07-09T02:45:47;9.93;;;8.30;;
17890;SDS011;9071;48.220;14.480;2023-07-09T02:50:49;9.10;;;7.63;;
17890;SDS011;9071;48.220;14.480;2023-07-09T02:55:52;13.65;;;9.50;;
17890;SDS011;9071;48.220;14.480;2023-07-09T03:00:55;11.00;;;8.60;;
17890;SDS011;9071;48.220;14.480;2023-07-09T03:05:57;10.43;;;8.02;;
17890;SDS011;9071;48.220;14.480;2023-07-09T03:11:02;9.00;;;7.43;;
17890;SDS011;9071;48.220;14.480;2023-07-09T03:16:10;9.52;;;7.63;;
17890;SDS011;9071;48.220;14.480;2023-07-09T03:21:13;9.80;;;7.85;;
17890;SDS011;9071;48.220;14.480;2023-07-09T03:26:16;11.60;;;7.72;;
17890;SDS011;9071;48.220;14.480;2023-07-09T03:31:18;10.88;;;8.02;;
17890;SDS011;9071;48.220;14.480;2023-07-09T03:36:20;9.52;;;7.40;;
17890;SDS011;9071;48.220;14.480;2023-07-09T03:41:24;9.98;;;7.75;;
17890;SDS011;9071;48.220;14.480;2023-07-09T03:46:26;10.18;;;7.78;;
17890;SDS011;9071;48.220;14.480;2023-07-09T03:51:28;11.68;;;8.85;;
17890;SDS011;9071;48.220;14.480;2023-07-09T03:56:31;10.43;;;8.07;;
17890;SDS011;9071;48.220;14.480;2023-07-09T04:01:33;11.90;;;8.30;;
17890;SDS011;9071;48.220;14.480;2023-07-09T04:06:35;11.05;;;8.57;;
17890;SDS011;9071;48.220;14.480;2023-07-09T04:11:39;11.13;;;7.90;;
17890;SDS011;9071;48.220;14.480;2023-07-09T04:16:41;11.73;;;8.13;;
17890;SDS011;9071;48.220;14.480;2023-07-09T04:21:43;12.05;;;8.73;;
17890;SDS011;9071;48.220;14.480;2023-07-09T04:26:46;11.60;;;8.57;;
17890;SDS011;9071;48.220;14.480;2023-07-09T04:31:49;10.05;;;8.18;;
17890;SDS011;9071;48.220;14.480;2023-07-09T04:36:51;10.55;;;8.27;;
17890;SDS011;9071;48.220;14.480;2023-07-09T04:41:54;9.73;;;8.23;;
17890;SDS011;9071;48.220;14.480;2023-07-09T04:46:56;10.25;;;8.27;;
17890;SDS011;9071;48.220;14.480;2023-07-09T04:51:58;10.65;;;8.65;;
17890;SDS011;9071;48.220;14.480;2023-07-09T04:57:02;13.82;;;8.07;;
17890;SDS011;9071;48.220;14.480;2023-07-09T05:02:06;12.95;;;7.97;;
17890;SDS011;9071;48.220;14.480;2023-07-09T05:07:08;9.88;;;7.63;;
17890;SDS011;9071;48.220;14.480;2023-07-09T05:12:12;11.05;;;8.25;;
17890;SDS011;9071;48.220;14.480;2023-07-09T05:17:14;11.25;;;8.15;;
17890;SDS011;9071;48.220;14.480;2023-07-09T05:22:16;9.35;;;8.13;;
17890;SDS011;9071;48.220;14.480;2023-07-09T05:27:19;10.30;;;7.88;;
17890;SDS011;9071;48.220;14.480;2023-07-09T05:32:21;8.20;;;6.93;;
17890;SDS011;9071;48.220;14.480;2023-07-09T05:37:23;10.00;;;7.18;;
17890;SDS011;9071;48.220;14.480;2023-07-09T05:42:27;9.20;;;7.28;;
17890;SDS011;9071;48.220;14.480;2023-07-09T05:47:29;8.77;;;7.13;;
17890;SDS011;9071;48.220;14.480;2023-07-09T05:52:31;8.60;;;6.90;;
17890;SDS011;9071;48.220;14.480;2023-07-09T05:57:34;10.25;;;7.00;;
17890;SDS011;9071;48.220;14.480;2023-07-09T06:02:36;11.23;;;6.57;;
17890;SDS011;9071;48.220;14.480;2023-07-09T06:07:38;7.47;;;6.22;;
17890;SDS011;9071;48.220;14.480;2023-07-09T06:12:42;9.68;;;6.85;;
17890;SDS011;9071;48.220;14.480;2023-07-09T06:17:44;7.88;;;6.30;;
17890;SDS011;9071;48.220;14.480;2023-07-09T06:22:46;8.27;;;6.32;;
17890;SDS011;9071;48.220;14.480;2023-07-09T06:27:50;7.60;;;6.18;;
17890;SDS011;9071;48.220;14.480;2023-07-09T06:32:52;7.82;;;6.50;;
17890;SDS011;9071;48.220;14.480;2023-07-09T06:37:54;6.50;;;5.88;;
17890;SDS011;9071;48.220;14.480;2023-07-09T06:42:58;8.10;;;6.32;;
17890;SDS011;9071;48.220;14.480;2023-07-09T06:48:00;10.00;;;6.05;;
17890;SDS011;9071;48.220;14.480;2023-07-09T06:53:02;9.65;;;6.13;;
17890;SDS011;9071;48.220;14.480;2023-07-09T06:58:06;6.43;;;5.68;;
17890;SDS011;9071;48.220;14.480;2023-07-09T07:03:08;11.70;;;6.30;;
17890;SDS011;9071;48.220;14.480;2023-07-09T07:08:13;8.00;;;5.88;;
17890;SDS011;9071;48.220;14.480;2023-07-09T07:13:17;7.88;;;6.30;;
17890;SDS011;9071;48.220;14.480;2023-07-09T07:18:19;7.65;;;5.85;;
17890;SDS011;9071;48.220;14.480;2023-07-09T07:23:21;7.97;;;5.88;;
17890;SDS011;9071;48.220;14.480;2023-07-09T07:28:25;6.80;;;5.95;;
17890;SDS011;9071;48.220;14.480;2023-07-09T07:33:27;8.20;;;6.50;;
17890;SDS011;9071;48.220;14.480;2023-07-09T07:38:30;6.38;;;5.78;;
17890;SDS011;9071;48.220;14.480;2023-07-09T07:43:33;9.48;;;5.63;;
17890;SDS011;9071;48.220;14.480;2023-07-09T07:48:35;8.75;;;5.68;;
17890;SDS011;9071;48.220;14.480;2023-07-09T07:53:37;9.40;;;5.57;;
17890;SDS011;9071;48.220;14.480;2023-07-09T07:58:41;10.52;;;5.82;;
17890;SDS011;9071;48.220;14.480;2023-07-09T08:03:43;9.93;;;5.78;;
17890;SDS011;9071;48.220;14.480;2023-07-09T08:08:45;8.25;;;5.68;;
17890;SDS011;9071;48.220;14.480;2023-07-09T08:13:48;6.40;;;5.53;;
17890;SDS011;9071;48.220;14.480;2023-07-09T08:18:51;9.15;;;5.97;;
17890;SDS011;9071;48.220;14.480;2023-07-09T08:23:53;9.25;;;6.18;;
17890;SDS011;9071;48.220;14.480;2023-07-09T08:28:56;8.60;;;6.35;;
17890;SDS011;9071;48.220;14.480;2023-07-09T08:33:58;9.55;;;6.43;;
17890;SDS011;9071;48.220;14.480;2023-07-09T08:39:01;10.00;;;5.93;;
17890;SDS011;9071;48.220;14.480;2023-07-09T08:44:09;8.02;;;6.38;;
17890;SDS011;9071;48.220;14.480;2023-07-09T08:49:37;10.38;;;6.97;;
17890;SDS011;9071;48.220;14.480;2023-07-09T08:54:42;10.93;;;6.57;;
17890;SDS011;9071;48.220;14.480;2023-07-09T08:59:49;8.38;;;6.22;;
17890;SDS011;9071;48.220;14.480;2023-07-09T09:04:53;12.23;;;6.43;;
17890;SDS011;9071;48.220;14.480;2023-07-09T09:09:56;9.45;;;6.25;;
17890;SDS011;9071;48.220;14.480;2023-07-09T09:15:03;7.75;;;6.75;;
17890;SDS011;9071;48.220;14.480;2023-07-09T09:20:11;8.40;;;6.57;;
17890;SDS011;9071;48.220;14.480;2023-07-09T09:25:23;8.30;;;6.68;;
17890;SDS011;9071;48.220;14.480;2023-07-09T09:30:30;12.13;;;7.13;;
17890;SDS011;9071;48.220;14.480;2023-07-09T09:35:33;8.85;;;7.35;;
17890;SDS011;9071;48.220;14.480;2023-07-09T09:40:36;12.70;;;6.72;;
17890;SDS011;9071;48.220;14.480;2023-07-09T09:45:40;8.75;;;6.10;;
17890;SDS011;9071;48.220;14.480;2023-07-09T09:50:44;9.00;;;6.57;;
17890;SDS011;9071;48.220;14.480;2023-07-09T09:55:47;6.93;;;5.93;;
17890;SDS011;9071;48.220;14.480;2023-07-09T10:00:52;8.52;;;6.00;;
17890;SDS011;9071;48.220;14.480;2023-07-09T10:05:58;8.70;;;6.35;;
17890;SDS011;9071;48.220;14.480;2023-07-09T10:11:07;9.05;;;6.45;;
17890;SDS011;9071;48.220;14.480;2023-07-09T10:16:18;6.68;;;5.93;;
17890;SDS011;9071;48.220;14.480;2023-07-09T10:21:27;8.13;;;6.45;;
17890;SDS011;9071;48.220;14.480;2023-07-09T10:26:35;10.00;;;6.05;;
17890;SDS011;9071;48.220;14.480;2023-07-09T10:31:44;7.63;;;6.32;;
17890;SDS011;9071;48.220;14.480;2023-07-09T10:36:58;6.13;;;5.45;;
17890;SDS011;9071;48.220;14.480;2023-07-09T10:42:10;9.40;;;6.10;;
17890;SDS011;9071;48.220;14.480;2023-07-09T10:47:21;9.35;;;6.45;;
17890;SDS011;9071;48.220;14.480;2023-07-09T10:52:32;7.25;;;5.82;;
17890;SDS011;9071;48.220;14.480;2023-07-09T10:57:41;7.03;;;5.38;;
17890;SDS011;9071;48.220;14.480;2023-07-09T11:02:50;6.30;;;5.18;;
17890;SDS011;9071;48.220;14.480;2023-07-09T11:08:00;8.27;;;5.35;;
17890;SDS011;9071;48.220;14.480;2023-07-09T11:13:09;8.30;;;5.78;;
17890;SDS011;9071;48.220;14.480;2023-07-09T11:18:16;5.95;;;4.80;;
17890;SDS011;9071;48.220;14.480;2023-07-09T11:23:23;6.50;;;4.70;;
17890;SDS011;9071;48.220;14.480;2023-07-09T11:28:32;7.78;;;5.50;;
17890;SDS011;9071;48.220;14.480;2023-07-09T11:33:45;8.23;;;5.10;;
17890;SDS011;9071;48.220;14.480;2023-07-09T11:38:48;6.40;;;4.22;;
17890;SDS011;9071;48.220;14.480;2023-07-09T11:43:50;7.72;;;4.75;;
17890;SDS011;9071;48.220;14.480;2023-07-09T11:48:54;4.60;;;4.13;;
17890;SDS011;9071;48.220;14.480;2023-07-09T11:53:59;7.20;;;4.75;;
17890;SDS011;9071;48.220;14.480;2023-07-09T11:59:02;6.05;;;4.40;;
17890;SDS011;9071;48.220;14.480;2023-07-09T12:04:06;5.57;;;4.85;;
17890;SDS011;9071;48.220;14.480;2023-07-09T12:09:16;7.03;;;4.95;;
17890;SDS011;9071;48.220;14.480;2023-07-09T12:14:20;7.05;;;4.40;;
17890;SDS011;9071;48.220;14.480;2023-07-09T12:19:28;6.30;;;4.22;;
17890;SDS011;9071;48.220;14.480;2023-07-09T12:24:35;6.18;;;4.40;;
17890;SDS011;9071;48.220;14.480;2023-07-09T12:29:41;6.25;;;4.32;;
17890;SDS011;9071;48.220;14.480;2023-07-09T12:34:49;5.07;;;4.32;;
17890;SDS011;9071;48.220;14.480;2023-07-09T12:39:52;5.72;;;4.13;;
17890;SDS011;9071;48.220;14.480;2023-07-09T12:44:54;5.38;;;4.00;;
17890;SDS011;9071;48.220;14.480;2023-07-09T12:50:02;6.68;;;4.38;;
17890;SDS011;9071;48.220;14.480;2023-07-09T12:55:19;7.68;;;4.63;;
17890;SDS011;9071;48.220;14.480;2023-07-09T13:00:22;5.78;;;4.55;;
17890;SDS011;9071;48.220;14.480;2023-07-09T13:05:29;8.40;;;5.65;;
17890;SDS011;9071;48.220;14.480;2023-07-09T13:10:34;6.70;;;4.18;;
17890;SDS011;9071;48.220;14.480;2023-07-09T13:15:43;7.07;;;4.30;;
17890;SDS011;9071;48.220;14.480;2023-07-09T13:20:47;6.15;;;4.40;;
17890;SDS011;9071;48.220;14.480;2023-07-09T13:25:49;7.75;;;4.57;;
17890;SDS011;9071;48.220;14.480;2023-07-09T13:30:52;5.28;;;4.55;;
17890;SDS011;9071;48.220;14.480;2023-07-09T13:35:58;8.07;;;4.30;;
17890;SDS011;9071;48.220;14.480;2023-07-09T13:41:01;6.97;;;4.50;;
17890;SDS011;9071;48.220;14.480;2023-07-09T13:46:12;5.63;;;4.00;;
17890;SDS011;9071;48.220;14.480;2023-07-09T13:51:16;7.82;;;4.13;;
17890;SDS011;9071;48.220;14.480;2023-07-09T13:56:20;5.57;;;4.22;;
17890;SDS011;9071;48.220;14.480;2023-07-09T14:01:23;5.53;;;4.45;;
17890;SDS011;9071;48.220;14.480;2023-07-09T14:06:27;6.65;;;4.78;;
17890;SDS011;9071;48.220;14.480;2023-07-09T14:11:29;5.35;;;4.22;;
17890;SDS011;9071;48.220;14.480;2023-07-09T14:16:31;8.38;;;4.32;;
17890;SDS011;9071;48.220;14.480;2023-07-09T14:21:35;8.20;;;4.85;;
17890;SDS011;9071;48.220;14.480;2023-07-09T14:26:37;8.52;;;4.90;;
17890;SDS011;9071;48.220;14.480;2023-07-09T14:31:39;6.15;;;4.30;;
17890;SDS011;9071;48.220;14.480;2023-07-09T14:36:43;4.32;;;3.90;;
17890;SDS011;9071;48.220;14.480;2023-07-09T14:41:45;6.15;;;4.07;;
17890;SDS011;9071;48.220;14.480;2023-07-09T14:46:48;4.80;;;4.35;;
17890;SDS011;9071;48.220;14.480;2023-07-09T14:51:52;6.35;;;4.22;;
17890;SDS011;9071;48.220;14.480;2023-07-09T14:56:55;6.80;;;4.80;;
17890;SDS011;9071;48.220;14.480;2023-07-09T15:01:58;5.43;;;3.95;;
17890;SDS011;9071;48.220;14.480;2023-07-09T15:07:01;6.03;;;4.20;;
17890;SDS011;9071;48.220;14.480;2023-07-09T15:12:04;6.75;;;4.38;;
17890;SDS011;9071;48.220;14.480;2023-07-09T15:17:13;6.40;;;4.22;;
17890;SDS011;9071;48.220;14.480;2023-07-09T15:22:28;8.20;;;4.03;;
17890;SDS011;9071;48.220;14.480;2023-07-09T15:27:33;4.38;;;3.97;;
17890;SDS011;9071;48.220;14.480;2023-07-09T15:32:36;5.80;;;4.30;;
17890;SDS011;9071;48.220;14.480;2023-07-09T15:37:40;5.35;;;4.10;;
17890;SDS011;9071;48.220;14.480;2023-07-09T15:42:42;8.25;;;4.20;;
17890;SDS011;9071;48.220;14.480;2023-07-09T15:47:45;6.25;;;4.30;;
17890;SDS011;9071;48.220;14.480;2023-07-09T15:52:49;5.75;;;4.15;;
17890;SDS011;9071;48.220;14.480;2023-07-09T15:57:53;5.28;;;4.70;;
17890;SDS011;9071;48.220;14.480;2023-07-09T16:02:56;5.03;;;4.28;;
17890;SDS011;9071;48.220;14.480;2023-07-09T16:08:00;5.68;;;4.40;;
17890;SDS011;9071;48.220;14.480;2023-07-09T16:13:03;6.72;;;4.30;;
17890;SDS011;9071;48.220;14.480;2023-07-09T16:18:07;7.40;;;4.63;;
17890;SDS011;9071;48.220;14.480;2023-07-09T16:23:16;6.68;;;4.60;;
17890;SDS011;9071;48.220;14.480;2023-07-09T16:28:19;7.45;;;4.45;;
17890;SDS011;9071;48.220;14.480;2023-07-09T16:33:21;7.50;;;4.93;;
17890;SDS011;9071;48.220;14.480;2023-07-09T16:38:25;6.47;;;4.43;;
17890;SDS011;9071;48.220;14.480;2023-07-09T16:43:27;7.20;;;4.55;;
17890;SDS011;9071;48.220;14.480;2023-07-09T16:48:29;10.10;;;4.90;;
17890;SDS011;9071;48.220;14.480;2023-07-09T16:53:33;6.93;;;4.88;;
17890;SDS011;9071;48.220;14.480;2023-07-09T16:58:35;7.63;;;4.30;;
17890;SDS011;9071;48.220;14.480;2023-07-09T17:03:38;5.53;;;4.50;;
17890;SDS011;9071;48.220;14.480;2023-07-09T17:08:41;5.88;;;4.22;;
17890;SDS011;9071;48.220;14.480;2023-07-09T17:13:44;5.75;;;4.40;;
17890;SDS011;9071;48.220;14.480;2023-07-09T17:18:47;6.82;;;4.68;;
17890;SDS011;9071;48.220;14.480;2023-07-09T17:23:50;4.90;;;4.40;;
17890;SDS011;9071;48.220;14.480;2023-07-09T17:28:53;6.57;;;4.60;;
17890;SDS011;9071;48.220;14.480;2023-07-09T17:33:55;6.70;;;5.05;;
17890;SDS011;9071;48.220;14.480;2023-07-09T17:38:58;6.78;;;4.40;;
17890;SDS011;9071;48.220;14.480;2023-07-09T17:44:00;6.35;;;5.20;;
17890;SDS011;9071;48.220;14.480;2023-07-09T17:49:04;7.07;;;4.65;;
17890;SDS011;9071;48.220;14.480;2023-07-09T17:54:15;5.47;;;4.65;;
17890;SDS011;9071;48.220;14.480;2023-07-09T17:59:19;5.50;;;4.70;;
17890;SDS011;9071;48.220;14.480;2023-07-09T18:04:25;6.45;;;4.55;;
17890;SDS011;9071;48.220;14.480;2023-07-09T18:09:29;6.03;;;5.05;;
17890;SDS011;9071;48.220;14.480;2023-07-09T18:14:33;5.63;;;4.80;;
17890;SDS011;9071;48.220;14.480;2023-07-09T18:19:40;9.18;;;5.00;;
17890;SDS011;9071;48.220;14.480;2023-07-09T18:24:44;7.78;;;4.95;;
17890;SDS011;9071;48.220;14.480;2023-07-09T18:29:46;6.28;;;4.28;;
17890;SDS011;9071;48.220;14.480;2023-07-09T18:34:51;6.32;;;5.15;;
17890;SDS011;9071;48.220;14.480;2023-07-09T18:39:58;9.25;;;5.30;;
17890;SDS011;9071;48.220;14.480;2023-07-09T18:45:00;11.07;;;5.32;;
17890;SDS011;9071;48.220;14.480;2023-07-09T18:50:02;7.82;;;5.00;;
17890;SDS011;9071;48.220;14.480;2023-07-09T18:55:14;8.07;;;5.28;;
17890;SDS011;9071;48.220;14.480;2023-07-09T19:00:18;11.48;;;5.82;;
17890;SDS011;9071;48.220;14.480;2023-07-09T19:05:23;7.65;;;5.68;;
17890;SDS011;9071;48.220;14.480;2023-07-09T19:10:28;10.00;;;5.85;;
17890;SDS011;9071;48.220;14.480;2023-07-09T19:15:31;8.10;;;6.13;;
17890;SDS011;9071;48.220;14.480;2023-07-09T19:20:37;8.68;;;6.22;;
17890;SDS011;9071;48.220;14.480;2023-07-09T19:25:40;9.15;;;6.00;;
17890;SDS011;9071;48.220;14.480;2023-07-09T19:30:43;10.90;;;5.90;;
17890;SDS011;9071;48.220;14.480;2023-07-09T19:35:47;8.82;;;6.10;;
17890;SDS011;9071;48.220;14.480;2023-07-09T19:40:50;7.05;;;6.03;;
17890;SDS011;9071;48.220;14.480;2023-07-09T19:45:52;9.10;;;6.10;;
17890;SDS011;9071;48.220;14.480;2023-07-09T19:50:54;9.63;;;6.18;;
17890;SDS011;9071;48.220;14.480;2023-07-09T19:55:58;12.88;;;7.15;;
17890;SDS011;9071;48.220;14.480;2023-07-09T20:01:00;11.43;;;7.18;;
17890;SDS011;9071;48.220;14.480;2023-07-09T20:06:02;9.90;;;6.93;;
17890;SDS011;9071;48.220;14.480;2023-07-09T20:11:09;7.90;;;6.72;;
17890;SDS011;9071;48.220;14.480;2023-07-09T20:16:18;10.90;;;7.53;;
17890;SDS011;9071;48.220;14.480;2023-07-09T20:21:25;15.50;;;7.30;;
17890;SDS011;9071;48.220;14.480;2023-07-09T20:26:29;13.18;;;6.70;;
17890;SDS011;9071;48.220;14.480;2023-07-09T20:31:31;8.98;;;6.38;;
17890;SDS011;9071;48.220;14.480;2023-07-09T20:36:33;10.68;;;6.90;;
17890;SDS011;9071;48.220;14.480;2023-07-09T20:41:36;8.05;;;6.30;;
17890;SDS011;9071;48.220;14.480;2023-07-09T20:46:39;12.32;;;7.35;;
17890;SDS011;9071;48.220;14.480;2023-07-09T20:51:41;10.15;;;6.90;;
17890;SDS011;9071;48.220;14.480;2023-07-09T20:56:45;9.48;;;6.97;;
17890;SDS011;9071;48.220;14.480;2023-07-09T21:01:47;16.25;;;8.43;;
17890;SDS011;9071;48.220;14.480;2023-07-09T21:06:51;10.95;;;7.63;;
17890;SDS011;9071;48.220;14.480;2023-07-09T21:11:55;13.77;;;7.22;;
17890;SDS011;9071;48.220;14.480;2023-07-09T21:16:58;7.93;;;6.53;;
17890;SDS011;9071;48.220;14.480;2023-07-09T21:22:00;14.02;;;7.30;;
17890;SDS011;9071;48.220;14.480;2023-07-09T21:27:05;9.15;;;7.30;;
17890;SDS011;9071;48.220;14.480;2023-07-09T21:32:10;8.13;;;6.25;;
17890;SDS011;9071;48.220;14.480;2023-07-09T21:37:20;11.25;;;7.10;;
17890;SDS011;9071;48.220;14.480;2023-07-09T21:42:25;9.95;;;7.15;;
17890;SDS011;9071;48.220;14.480;2023-07-09T21:47:27;8.85;;;6.85;;
17890;SDS011;9071;48.220;14.480;2023-07-09T21:52:29;10.25;;;6.57;;
17890;SDS011;9071;48.220;14.480;2023-07-09T21:57:33;8.70;;;6.63;;
17890;SDS011;9071;48.220;14.480;2023-07-09T22:02:35;10.38;;;7.13;;
17890;SDS011;9071;48.220;14.480;2023-07-09T22:07:37;14.55;;;7.47;;
17890;SDS011;9071;48.220;14.480;2023-07-09T22:12:41;10.60;;;8.05;;
17890;SDS011;9071;48.220;14.480;2023-07-09T22:17:47;11.05;;;7.72;;
17890;SDS011;9071;48.220;14.480;2023-07-09T22:22:50;12.20;;;8.13;;
17890;SDS011;9071;48.220;14.480;2023-07-09T22:27:54;11.05;;;7.78;;
17890;SDS011;9071;48.220;14.480;2023-07-09T22:32:57;9.68;;;7.45;;
17890;SDS011;9071;48.220;14.480;2023-07-09T22:38:00;9.75;;;7.82;;
17890;SDS011;9071;48.220;14.480;2023-07-09T22:43:05;11.10;;;7.70;;
17890;SDS011;9071;48.220;14.480;2023-07-09T22:48:08;9.70;;;7.20;;
17890;SDS011;9071;48.220;14.480;2023-07-09T22:53:11;10.60;;;7.20;;
17890;SDS011;9071;48.220;14.480;2023-07-09T22:58:17;9.15;;;6.72;;
17890;SDS011;9071;48.220;14.480;2023-07-09T23:03:21;9.63;;;8.05;;
17890;SDS011;9071;48.220;14.480;2023-07-09T23:08:25;10.57;;;8.18;;
17890;SDS011;9071;48.220;14.480;2023-07-09T23:13:30;14.20;;;8.20;;
17890;SDS011;9071;48.220;14.480;2023-07-09T23:18:33;13.40;;;7.43;;
17890;SDS011;9071;48.220;14.480;2023-07-09T23:23:35;12.27;;;7.63;;
17890;SDS011;9071;48.220;14.480;2023-07-09T23:28:39;10.02;;;7.22;;
17890;SDS011;9071;48.220;14.480;2023-07-09T23:33:41;10.38;;;7.20;;
17890;SDS011;9071;48.220;14.480;2023-07-09T23:38:44;8.82;;;7.68;;
17890;SDS011;9071;48.220;14.480;2023-07-09T23:43:48;11.57;;;7.63;;
17890;SDS011;9071;48.220;14.480;2023-07-09T23:48:51;10.65;;;7.47;;
17890;SDS011;9071;48.220;14.480;2023-07-09T23:53:53;9.60;;;7.30;;
17890;SDS011;9071;48.220;14.480;2023-07-09T23:58:57;10.48;;;8.23;;
